sensor_id;sensor_type;location;lat;lon;timestamp;temperature;humidity
43671;DHT22;29267;50.906;7.248;2024-03-07T00:02:13;4.70;99.90
43671;DHT22;29267;50.906;7.248;2024-03-07T00:04:39;4.70;99.90
43671;DHT22;29267;50.906;7.248;2024-03-07T00:07:05;4.60;99.90
43671;DHT22;29267;50.906;7.248;2024-03-07T00:09:33;4.60;99.90
43671;DHT22;29267;50.906;7.248;2024-03-07T00:11:58;4.60;99.90
43671;DHT22;29267;50.906;7.248;2024-03-07T00:14:24;4.60;99.90
43671;DHT22;29267;50.906;7.248;2024-03-07T00:16:56;4.50;99.90
43671;DHT22;29267;50.906;7.248;2024-03-07T00:19:23;4.50;99.90
43671;DHT22;29267;50.906;7.248;2024-03-07T00:22:01;4.40;99.90
43671;DHT22;29267;50.906;7.248;2024-03-07T00:24:26;4.40;99.90
43671;DHT22;29267;50.906;7.248;2024-03-07T00:26:55;4.30;99.90
43671;DHT22;29267;50.906;7.248;2024-03-07T00:29:22;4.30;99.90
43671;DHT22;29267;50.906;7.248;2024-03-07T00:31:49;4.30;99.90
43671;DHT22;29267;50.906;7.248;2024-03-07T00:34:15;4.20;99.90
43671;DHT22;29267;50.906;7.248;2024-03-07T00:36:45;4.20;99.90
43671;DHT22;29267;50.906;7.248;2024-03-07T00:39:12;4.20;99.90
43671;DHT22;29267;50.906;7.248;2024-03-07T00:41:40;4.20;99.90
43671;DHT22;29267;50.906;7.248;2024-03-07T00:44:07;4.20;99.90
43671;DHT22;29267;50.906;7.248;2024-03-07T00:46:34;4.10;99.90
43671;DHT22;29267;50.906;7.248;2024-03-07T00:49:01;4.10;99.90
43671;DHT22;29267;50.906;7.248;2024-03-07T00:51:27;4.10;99.90
43671;DHT22;29267;50.906;7.248;2024-03-07T00:53:52;4.10;99.90
43671;DHT22;29267;50.906;7.248;2024-03-07T00:56:18;4.10;99.90
43671;DHT22;29267;50.906;7.248;2024-03-07T00:58:44;4.10;99.90
43671;DHT22;29267;50.906;7.248;2024-03-07T01:01:09;4.10;99.90
43671;DHT22;29267;50.906;7.248;2024-03-07T01:03:36;4.10;99.90
43671;DHT22;29267;50.906;7.248;2024-03-07T01:06:03;4.00;99.90
43671;DHT22;29267;50.906;7.248;2024-03-07T01:08:28;4.00;99.90
43671;DHT22;29267;50.906;7.248;2024-03-07T01:10:58;4.00;99.90
43671;DHT22;29267;50.906;7.248;2024-03-07T01:13:23;3.90;99.90
43671;DHT22;29267;50.906;7.248;2024-03-07T01:15:49;3.90;99.90
43671;DHT22;29267;50.906;7.248;2024-03-07T01:18:15;3.80;99.90
43671;DHT22;29267;50.906;7.248;2024-03-07T01:20:42;3.80;99.90
43671;DHT22;29267;50.906;7.248;2024-03-07T01:23:08;3.70;99.90
43671;DHT22;29267;50.906;7.248;2024-03-07T01:25:34;3.70;99.90
43671;DHT22;29267;50.906;7.248;2024-03-07T01:28:00;3.70;99.90
43671;DHT22;29267;50.906;7.248;2024-03-07T01:30:26;3.60;99.90
43671;DHT22;29267;50.906;7.248;2024-03-07T01:32:54;3.60;99.90
43671;DHT22;29267;50.906;7.248;2024-03-07T01:35:20;3.60;99.90
43671;DHT22;29267;50.906;7.248;2024-03-07T01:37:45;3.60;99.90
43671;DHT22;29267;50.906;7.248;2024-03-07T01:40:11;3.50;99.90
43671;DHT22;29267;50.906;7.248;2024-03-07T01:42:37;3.50;99.90
43671;DHT22;29267;50.906;7.248;2024-03-07T01:45:03;3.50;99.90
43671;DHT22;29267;50.906;7.248;2024-03-07T01:47:28;3.40;99.90
43671;DHT22;29267;50.906;7.248;2024-03-07T01:49:54;3.30;99.90
43671;DHT22;29267;50.906;7.248;2024-03-07T01:52:20;3.30;99.90
43671;DHT22;29267;50.906;7.248;2024-03-07T01:54:48;3.30;99.90
43671;DHT22;29267;50.906;7.248;2024-03-07T01:57:15;3.30;99.90
43671;DHT22;29267;50.906;7.248;2024-03-07T01:59:42;3.20;99.90
43671;DHT22;29267;50.906;7.248;2024-03-07T02:02:08;3.20;99.90
43671;DHT22;29267;50.906;7.248;2024-03-07T02:04:34;3.10;99.90
43671;DHT22;29267;50.906;7.248;2024-03-07T02:06:59;3.10;99.90
43671;DHT22;29267;50.906;7.248;2024-03-07T02:09:25;3.10;99.90
43671;DHT22;29267;50.906;7.248;2024-03-07T02:11:51;3.10;99.90
43671;DHT22;29267;50.906;7.248;2024-03-07T02:14:16;3.20;99.90
43671;DHT22;29267;50.906;7.248;2024-03-07T02:16:42;3.30;99.90
43671;DHT22;29267;50.906;7.248;2024-03-07T02:19:14;3.30;99.90
43671;DHT22;29267;50.906;7.248;2024-03-07T02:21:40;3.30;99.90
43671;DHT22;29267;50.906;7.248;2024-03-07T02:24:06;3.30;99.90
43671;DHT22;29267;50.906;7.248;2024-03-07T02:26:32;3.30;99.90
43671;DHT22;29267;50.906;7.248;2024-03-07T02:28:57;3.30;99.90
43671;DHT22;29267;50.906;7.248;2024-03-07T02:31:23;3.20;99.90
43671;DHT22;29267;50.906;7.248;2024-03-07T02:34:01;3.20;99.90
43671;DHT22;29267;50.906;7.248;2024-03-07T02:36:27;3.10;99.90
43671;DHT22;29267;50.906;7.248;2024-03-07T02:38:53;2.90;99.90
43671;DHT22;29267;50.906;7.248;2024-03-07T02:41:18;2.80;99.90
43671;DHT22;29267;50.906;7.248;2024-03-07T02:43:44;2.70;99.90
43671;DHT22;29267;50.906;7.248;2024-03-07T02:46:09;2.60;99.90
43671;DHT22;29267;50.906;7.248;2024-03-07T02:48:37;2.50;99.90
43671;DHT22;29267;50.906;7.248;2024-03-07T02:51:04;2.50;99.90
43671;DHT22;29267;50.906;7.248;2024-03-07T02:53:31;2.40;99.90
43671;DHT22;29267;50.906;7.248;2024-03-07T02:55:58;2.40;99.90
43671;DHT22;29267;50.906;7.248;2024-03-07T02:58:23;2.40;99.90
43671;DHT22;29267;50.906;7.248;2024-03-07T03:00:59;2.30;99.90
43671;DHT22;29267;50.906;7.248;2024-03-07T03:03:31;2.40;99.90
43671;DHT22;29267;50.906;7.248;2024-03-07T03:05:57;2.40;99.90
43671;DHT22;29267;50.906;7.248;2024-03-07T03:08:23;2.50;99.90
43671;DHT22;29267;50.906;7.248;2024-03-07T03:10:49;2.40;99.90
43671;DHT22;29267;50.906;7.248;2024-03-07T03:13:16;2.40;99.90
43671;DHT22;29267;50.906;7.248;2024-03-07T03:15:42;2.40;99.90
43671;DHT22;29267;50.906;7.248;2024-03-07T03:18:08;2.50;99.90
43671;DHT22;29267;50.906;7.248;2024-03-07T03:20:35;2.50;99.90
43671;DHT22;29267;50.906;7.248;2024-03-07T03:23:04;2.40;99.90
43671;DHT22;29267;50.906;7.248;2024-03-07T03:25:31;2.50;99.90
43671;DHT22;29267;50.906;7.248;2024-03-07T03:28:00;2.50;99.90
43671;DHT22;29267;50.906;7.248;2024-03-07T03:30:26;2.50;99.90
43671;DHT22;29267;50.906;7.248;2024-03-07T03:32:52;2.50;99.90
43671;DHT22;29267;50.906;7.248;2024-03-07T03:35:17;2.50;99.90
43671;DHT22;29267;50.906;7.248;2024-03-07T03:37:43;2.60;99.90
43671;DHT22;29267;50.906;7.248;2024-03-07T03:40:10;2.60;99.90
43671;DHT22;29267;50.906;7.248;2024-03-07T03:42:40;2.60;99.90
43671;DHT22;29267;50.906;7.248;2024-03-07T03:45:07;2.50;99.90
43671;DHT22;29267;50.906;7.248;2024-03-07T03:47:37;2.50;99.90
43671;DHT22;29267;50.906;7.248;2024-03-07T03:50:07;2.40;99.90
43671;DHT22;29267;50.906;7.248;2024-03-07T03:52:34;2.30;99.90
43671;DHT22;29267;50.906;7.248;2024-03-07T03:55:06;2.20;99.90
43671;DHT22;29267;50.906;7.248;2024-03-07T03:57:33;2.20;99.90
43671;DHT22;29267;50.906;7.248;2024-03-07T03:59:59;2.20;99.90
43671;DHT22;29267;50.906;7.248;2024-03-07T04:02:25;2.20;99.90
43671;DHT22;29267;50.906;7.248;2024-03-07T04:04:51;2.20;99.90
43671;DHT22;29267;50.906;7.248;2024-03-07T04:07:18;2.20;99.90
43671;DHT22;29267;50.906;7.248;2024-03-07T04:09:47;2.10;99.90
43671;DHT22;29267;50.906;7.248;2024-03-07T04:12:13;2.10;99.90
43671;DHT22;29267;50.906;7.248;2024-03-07T04:14:42;2.00;99.90
43671;DHT22;29267;50.906;7.248;2024-03-07T04:17:09;2.00;99.90
43671;DHT22;29267;50.906;7.248;2024-03-07T04:19:35;2.00;99.90
43671;DHT22;29267;50.906;7.248;2024-03-07T04:22:02;2.10;99.90
43671;DHT22;29267;50.906;7.248;2024-03-07T04:24:32;2.10;99.90
43671;DHT22;29267;50.906;7.248;2024-03-07T04:27:01;2.10;99.90
43671;DHT22;29267;50.906;7.248;2024-03-07T04:29:30;2.10;99.90
43671;DHT22;29267;50.906;7.248;2024-03-07T04:31:55;2.20;99.90
43671;DHT22;29267;50.906;7.248;2024-03-07T04:34:21;2.20;99.90
43671;DHT22;29267;50.906;7.248;2024-03-07T04:36:47;2.20;99.90
43671;DHT22;29267;50.906;7.248;2024-03-07T04:39:12;2.20;99.90
43671;DHT22;29267;50.906;7.248;2024-03-07T04:41:50;2.20;99.90
43671;DHT22;29267;50.906;7.248;2024-03-07T04:44:16;2.20;99.90
43671;DHT22;29267;50.906;7.248;2024-03-07T04:46:42;2.20;99.90
43671;DHT22;29267;50.906;7.248;2024-03-07T04:49:08;2.20;99.90
43671;DHT22;29267;50.906;7.248;2024-03-07T04:51:34;2.10;99.90
43671;DHT22;29267;50.906;7.248;2024-03-07T04:54:00;2.20;99.90
43671;DHT22;29267;50.906;7.248;2024-03-07T04:56:26;2.10;99.90
43671;DHT22;29267;50.906;7.248;2024-03-07T04:58:51;2.10;99.90
43671;DHT22;29267;50.906;7.248;2024-03-07T05:01:18;2.10;99.90
43671;DHT22;29267;50.906;7.248;2024-03-07T05:03:43;2.00;99.90
43671;DHT22;29267;50.906;7.248;2024-03-07T05:06:09;2.00;99.90
43671;DHT22;29267;50.906;7.248;2024-03-07T05:08:34;2.00;99.90
43671;DHT22;29267;50.906;7.248;2024-03-07T05:11:00;1.90;99.90
43671;DHT22;29267;50.906;7.248;2024-03-07T05:13:25;1.90;99.90
43671;DHT22;29267;50.906;7.248;2024-03-07T05:15:51;1.80;99.90
43671;DHT22;29267;50.906;7.248;2024-03-07T05:18:18;1.80;99.90
43671;DHT22;29267;50.906;7.248;2024-03-07T05:20:43;1.80;99.90
43671;DHT22;29267;50.906;7.248;2024-03-07T05:23:09;1.80;99.90
43671;DHT22;29267;50.906;7.248;2024-03-07T05:25:36;1.80;99.90
43671;DHT22;29267;50.906;7.248;2024-03-07T05:28:01;1.80;99.90
43671;DHT22;29267;50.906;7.248;2024-03-07T05:30:28;1.70;99.90
43671;DHT22;29267;50.906;7.248;2024-03-07T05:32:53;1.70;99.90
43671;DHT22;29267;50.906;7.248;2024-03-07T05:35:19;1.70;99.90
43671;DHT22;29267;50.906;7.248;2024-03-07T05:37:45;1.70;99.90
43671;DHT22;29267;50.906;7.248;2024-03-07T05:40:12;1.70;99.90
43671;DHT22;29267;50.906;7.248;2024-03-07T05:42:38;1.70;99.90
43671;DHT22;29267;50.906;7.248;2024-03-07T05:45:04;1.60;99.90
43671;DHT22;29267;50.906;7.248;2024-03-07T05:47:33;1.60;99.90
43671;DHT22;29267;50.906;7.248;2024-03-07T05:49:59;1.60;99.90
43671;DHT22;29267;50.906;7.248;2024-03-07T05:52:25;1.60;99.90
43671;DHT22;29267;50.906;7.248;2024-03-07T05:54:50;1.50;99.90
43671;DHT22;29267;50.906;7.248;2024-03-07T05:57:16;1.50;99.90
43671;DHT22;29267;50.906;7.248;2024-03-07T05:59:41;1.50;99.90
43671;DHT22;29267;50.906;7.248;2024-03-07T06:02:07;1.50;99.90
43671;DHT22;29267;50.906;7.248;2024-03-07T06:04:32;1.50;99.90
43671;DHT22;29267;50.906;7.248;2024-03-07T06:06:59;1.50;99.90
43671;DHT22;29267;50.906;7.248;2024-03-07T06:09:25;1.60;99.90
43671;DHT22;29267;50.906;7.248;2024-03-07T06:11:52;1.60;99.90
43671;DHT22;29267;50.906;7.248;2024-03-07T06:14:17;1.70;99.90
43671;DHT22;29267;50.906;7.248;2024-03-07T06:16:43;1.70;99.90
43671;DHT22;29267;50.906;7.248;2024-03-07T06:19:09;1.80;99.90
43671;DHT22;29267;50.906;7.248;2024-03-07T06:21:39;1.90;99.90
43671;DHT22;29267;50.906;7.248;2024-03-07T06:24:05;1.90;99.90
43671;DHT22;29267;50.906;7.248;2024-03-07T06:26:33;2.00;99.90
43671;DHT22;29267;50.906;7.248;2024-03-07T06:29:06;2.00;99.90
43671;DHT22;29267;50.906;7.248;2024-03-07T06:31:32;2.00;99.90
43671;DHT22;29267;50.906;7.248;2024-03-07T06:33:58;2.10;99.90
43671;DHT22;29267;50.906;7.248;2024-03-07T06:36:24;2.10;99.90
43671;DHT22;29267;50.906;7.248;2024-03-07T06:38:50;2.10;99.90
43671;DHT22;29267;50.906;7.248;2024-03-07T06:41:16;2.10;99.90
43671;DHT22;29267;50.906;7.248;2024-03-07T06:43:43;2.20;99.90
43671;DHT22;29267;50.906;7.248;2024-03-07T06:46:10;2.20;99.90
43671;DHT22;29267;50.906;7.248;2024-03-07T06:48:35;2.20;99.90
43671;DHT22;29267;50.906;7.248;2024-03-07T06:51:01;2.30;99.90
43671;DHT22;29267;50.906;7.248;2024-03-07T06:53:27;2.30;99.90
43671;DHT22;29267;50.906;7.248;2024-03-07T06:55:54;2.40;99.90
43671;DHT22;29267;50.906;7.248;2024-03-07T06:58:20;2.50;99.90
43671;DHT22;29267;50.906;7.248;2024-03-07T07:00:46;2.50;99.90
43671;DHT22;29267;50.906;7.248;2024-03-07T07:03:12;2.60;99.90
43671;DHT22;29267;50.906;7.248;2024-03-07T07:05:39;2.70;99.90
43671;DHT22;29267;50.906;7.248;2024-03-07T07:08:06;2.80;99.90
43671;DHT22;29267;50.906;7.248;2024-03-07T07:10:32;2.80;99.90
43671;DHT22;29267;50.906;7.248;2024-03-07T07:12:57;2.90;99.90
43671;DHT22;29267;50.906;7.248;2024-03-07T07:15:23;3.10;99.90
43671;DHT22;29267;50.906;7.248;2024-03-07T07:17:49;3.30;99.90
43671;DHT22;29267;50.906;7.248;2024-03-07T07:20:18;3.50;99.90
43671;DHT22;29267;50.906;7.248;2024-03-07T07:22:45;3.70;99.90
43671;DHT22;29267;50.906;7.248;2024-03-07T07:25:12;3.70;99.90
43671;DHT22;29267;50.906;7.248;2024-03-07T07:27:46;3.80;99.90
43671;DHT22;29267;50.906;7.248;2024-03-07T07:30:13;3.80;99.90
43671;DHT22;29267;50.906;7.248;2024-03-07T07:32:40;3.90;99.90
43671;DHT22;29267;50.906;7.248;2024-03-07T07:35:07;4.00;99.90
43671;DHT22;29267;50.906;7.248;2024-03-07T07:37:44;4.00;99.90
43671;DHT22;29267;50.906;7.248;2024-03-07T07:40:17;4.20;99.90
43671;DHT22;29267;50.906;7.248;2024-03-07T07:42:49;4.30;99.90
43671;DHT22;29267;50.906;7.248;2024-03-07T07:45:17;4.40;99.90
43671;DHT22;29267;50.906;7.248;2024-03-07T07:47:47;4.50;99.90
43671;DHT22;29267;50.906;7.248;2024-03-07T07:50:17;4.60;99.90
43671;DHT22;29267;50.906;7.248;2024-03-07T07:52:51;4.70;99.90
43671;DHT22;29267;50.906;7.248;2024-03-07T07:55:16;4.70;99.90
43671;DHT22;29267;50.906;7.248;2024-03-07T07:57:47;4.80;99.90
43671;DHT22;29267;50.906;7.248;2024-03-07T08:00:14;4.90;99.90
43671;DHT22;29267;50.906;7.248;2024-03-07T08:02:53;4.90;99.90
43671;DHT22;29267;50.906;7.248;2024-03-07T08:05:20;4.90;99.90
43671;DHT22;29267;50.906;7.248;2024-03-07T08:07:51;5.10;99.90
43671;DHT22;29267;50.906;7.248;2024-03-07T08:10:18;5.10;99.90
43671;DHT22;29267;50.906;7.248;2024-03-07T08:12:44;5.20;99.90
43671;DHT22;29267;50.906;7.248;2024-03-07T08:15:12;5.30;99.90
43671;DHT22;29267;50.906;7.248;2024-03-07T08:17:42;5.40;99.90
43671;DHT22;29267;50.906;7.248;2024-03-07T08:20:13;5.60;99.90
43671;DHT22;29267;50.906;7.248;2024-03-07T08:22:40;5.70;99.90
43671;DHT22;29267;50.906;7.248;2024-03-07T08:25:09;5.80;99.90
43671;DHT22;29267;50.906;7.248;2024-03-07T08:27:36;5.80;99.90
43671;DHT22;29267;50.906;7.248;2024-03-07T08:30:03;5.80;99.90
43671;DHT22;29267;50.906;7.248;2024-03-07T08:32:29;5.80;99.90
43671;DHT22;29267;50.906;7.248;2024-03-07T08:34:54;5.80;99.90
43671;DHT22;29267;50.906;7.248;2024-03-07T08:37:20;5.80;99.90
43671;DHT22;29267;50.906;7.248;2024-03-07T08:39:46;5.90;99.90
43671;DHT22;29267;50.906;7.248;2024-03-07T08:42:12;6.10;99.90
43671;DHT22;29267;50.906;7.248;2024-03-07T08:44:38;6.20;99.90
43671;DHT22;29267;50.906;7.248;2024-03-07T08:47:03;6.30;99.90
43671;DHT22;29267;50.906;7.248;2024-03-07T08:49:29;6.30;99.90
43671;DHT22;29267;50.906;7.248;2024-03-07T08:51:54;6.30;99.90
43671;DHT22;29267;50.906;7.248;2024-03-07T08:54:20;6.40;99.90
43671;DHT22;29267;50.906;7.248;2024-03-07T08:56:45;6.50;99.90
43671;DHT22;29267;50.906;7.248;2024-03-07T08:59:11;6.60;99.90
43671;DHT22;29267;50.906;7.248;2024-03-07T09:01:41;6.60;99.90
43671;DHT22;29267;50.906;7.248;2024-03-07T09:04:09;6.80;99.90
43671;DHT22;29267;50.906;7.248;2024-03-07T09:06:34;6.80;99.90
43671;DHT22;29267;50.906;7.248;2024-03-07T09:09:00;6.90;99.90
43671;DHT22;29267;50.906;7.248;2024-03-07T09:11:25;7.20;99.90
43671;DHT22;29267;50.906;7.248;2024-03-07T09:13:51;7.10;99.90
43671;DHT22;29267;50.906;7.248;2024-03-07T09:16:17;7.30;99.90
43671;DHT22;29267;50.906;7.248;2024-03-07T09:18:42;7.40;99.90
43671;DHT22;29267;50.906;7.248;2024-03-07T09:21:08;7.30;99.90
43671;DHT22;29267;50.906;7.248;2024-03-07T09:23:34;7.30;99.90
43671;DHT22;29267;50.906;7.248;2024-03-07T09:26:00;7.40;99.90
43671;DHT22;29267;50.906;7.248;2024-03-07T09:28:28;7.50;99.90
43671;DHT22;29267;50.906;7.248;2024-03-07T09:30:53;7.60;99.90
43671;DHT22;29267;50.906;7.248;2024-03-07T09:33:20;7.60;99.90
43671;DHT22;29267;50.906;7.248;2024-03-07T09:35:46;7.80;99.90
43671;DHT22;29267;50.906;7.248;2024-03-07T09:38:13;7.80;99.90
43671;DHT22;29267;50.906;7.248;2024-03-07T09:40:40;8.00;99.90
43671;DHT22;29267;50.906;7.248;2024-03-07T09:43:06;7.90;99.90
43671;DHT22;29267;50.906;7.248;2024-03-07T09:45:35;7.90;99.90
43671;DHT22;29267;50.906;7.248;2024-03-07T09:48:01;8.00;99.90
43671;DHT22;29267;50.906;7.248;2024-03-07T09:50:30;7.90;99.90
43671;DHT22;29267;50.906;7.248;2024-03-07T09:52:57;7.90;99.90
43671;DHT22;29267;50.906;7.248;2024-03-07T09:55:23;7.90;99.90
43671;DHT22;29267;50.906;7.248;2024-03-07T09:57:50;8.00;99.90
43671;DHT22;29267;50.906;7.248;2024-03-07T10:00:17;8.00;99.90
43671;DHT22;29267;50.906;7.248;2024-03-07T10:02:57;8.20;99.90
43671;DHT22;29267;50.906;7.248;2024-03-07T10:05:27;8.70;99.90
43671;DHT22;29267;50.906;7.248;2024-03-07T10:07:52;8.80;99.90
43671;DHT22;29267;50.906;7.248;2024-03-07T10:10:19;9.10;99.90
43671;DHT22;29267;50.906;7.248;2024-03-07T10:12:45;9.70;99.90
43671;DHT22;29267;50.906;7.248;2024-03-07T10:15:11;10.10;99.90
43671;DHT22;29267;50.906;7.248;2024-03-07T10:17:39;10.70;99.90
43671;DHT22;29267;50.906;7.248;2024-03-07T10:20:06;10.80;99.90
43671;DHT22;29267;50.906;7.248;2024-03-07T10:22:36;11.00;99.30
43671;DHT22;29267;50.906;7.248;2024-03-07T10:25:03;10.90;99.70
43671;DHT22;29267;50.906;7.248;2024-03-07T10:27:29;10.70;99.90
43671;DHT22;29267;50.906;7.248;2024-03-07T10:29:55;10.70;99.90
43671;DHT22;29267;50.906;7.248;2024-03-07T10:32:22;10.90;99.90
43671;DHT22;29267;50.906;7.248;2024-03-07T10:34:50;11.10;99.30
43671;DHT22;29267;50.906;7.248;2024-03-07T10:37:16;11.10;99.80
43671;DHT22;29267;50.906;7.248;2024-03-07T10:39:46;10.70;99.90
43671;DHT22;29267;50.906;7.248;2024-03-07T10:42:15;10.50;99.90
43671;DHT22;29267;50.906;7.248;2024-03-07T10:44:45;10.20;99.90
43671;DHT22;29267;50.906;7.248;2024-03-07T10:47:19;9.80;99.90
43671;DHT22;29267;50.906;7.248;2024-03-07T10:52:43;9.60;99.90
43671;DHT22;29267;50.906;7.248;2024-03-07T10:55:34;9.50;99.90
43671;DHT22;29267;50.906;7.248;2024-03-07T10:58:12;9.40;99.90
43671;DHT22;29267;50.906;7.248;2024-03-07T11:00:41;9.50;99.90
43671;DHT22;29267;50.906;7.248;2024-03-07T11:03:11;9.40;99.90
43671;DHT22;29267;50.906;7.248;2024-03-07T11:05:37;9.50;99.90
43671;DHT22;29267;50.906;7.248;2024-03-07T11:08:03;9.40;99.90
43671;DHT22;29267;50.906;7.248;2024-03-07T11:10:39;9.40;99.90
43671;DHT22;29267;50.906;7.248;2024-03-07T11:13:08;9.60;99.90
43671;DHT22;29267;50.906;7.248;2024-03-07T11:15:36;9.60;99.90
43671;DHT22;29267;50.906;7.248;2024-03-07T11:18:03;9.70;99.90
43671;DHT22;29267;50.906;7.248;2024-03-07T11:20:39;9.90;99.90
43671;DHT22;29267;50.906;7.248;2024-03-07T11:23:28;10.00;99.90
43671;DHT22;29267;50.906;7.248;2024-03-07T11:25:55;10.10;99.90
43671;DHT22;29267;50.906;7.248;2024-03-07T11:28:28;10.30;99.90
43671;DHT22;29267;50.906;7.248;2024-03-07T11:30:54;10.10;99.90
43671;DHT22;29267;50.906;7.248;2024-03-07T11:33:20;9.90;99.90
43671;DHT22;29267;50.906;7.248;2024-03-07T11:35:49;9.70;99.90
43671;DHT22;29267;50.906;7.248;2024-03-07T11:38:14;9.50;99.90
43671;DHT22;29267;50.906;7.248;2024-03-07T11:43:05;9.50;99.90
43671;DHT22;29267;50.906;7.248;2024-03-07T11:45:31;9.60;99.90
43671;DHT22;29267;50.906;7.248;2024-03-07T11:48:04;9.70;99.90
43671;DHT22;29267;50.906;7.248;2024-03-07T11:50:34;9.70;99.90
43671;DHT22;29267;50.906;7.248;2024-03-07T11:53:04;9.80;99.90
43671;DHT22;29267;50.906;7.248;2024-03-07T11:55:37;9.50;99.90
43671;DHT22;29267;50.906;7.248;2024-03-07T11:58:14;9.40;99.90
43671;DHT22;29267;50.906;7.248;2024-03-07T12:00:42;9.40;99.90
43671;DHT22;29267;50.906;7.248;2024-03-07T12:03:10;9.60;99.90
43671;DHT22;29267;50.906;7.248;2024-03-07T12:05:39;9.80;99.90
43671;DHT22;29267;50.906;7.248;2024-03-07T12:08:05;10.10;99.90
43671;DHT22;29267;50.906;7.248;2024-03-07T12:10:31;10.40;99.90
43671;DHT22;29267;50.906;7.248;2024-03-07T12:12:57;10.50;99.90
43671;DHT22;29267;50.906;7.248;2024-03-07T12:15:23;10.80;99.90
43671;DHT22;29267;50.906;7.248;2024-03-07T12:17:50;10.90;99.90
43671;DHT22;29267;50.906;7.248;2024-03-07T12:20:19;10.90;99.90
43671;DHT22;29267;50.906;7.248;2024-03-07T12:22:55;11.00;99.90
43671;DHT22;29267;50.906;7.248;2024-03-07T12:25:22;10.90;99.70
43671;DHT22;29267;50.906;7.248;2024-03-07T12:30:53;10.70;99.90
43671;DHT22;29267;50.906;7.248;2024-03-07T12:33:20;10.40;99.90
43671;DHT22;29267;50.906;7.248;2024-03-07T12:35:47;10.10;99.90
43671;DHT22;29267;50.906;7.248;2024-03-07T12:38:15;10.00;99.90
43671;DHT22;29267;50.906;7.248;2024-03-07T12:40:42;10.10;99.90
43671;DHT22;29267;50.906;7.248;2024-03-07T12:45:52;10.00;99.90
43671;DHT22;29267;50.906;7.248;2024-03-07T12:48:18;10.00;99.90
43671;DHT22;29267;50.906;7.248;2024-03-07T12:50:46;10.10;99.90
43671;DHT22;29267;50.906;7.248;2024-03-07T12:53:15;10.10;99.90
43671;DHT22;29267;50.906;7.248;2024-03-07T12:55:43;10.10;99.90
43671;DHT22;29267;50.906;7.248;2024-03-07T12:58:09;10.20;99.90
43671;DHT22;29267;50.906;7.248;2024-03-07T13:00:37;10.30;99.90
43671;DHT22;29267;50.906;7.248;2024-03-07T13:03:04;10.40;99.90
43671;DHT22;29267;50.906;7.248;2024-03-07T13:05:30;10.50;99.90
43671;DHT22;29267;50.906;7.248;2024-03-07T13:07:56;10.50;99.70
43671;DHT22;29267;50.906;7.248;2024-03-07T13:10:21;10.50;99.90
43671;DHT22;29267;50.906;7.248;2024-03-07T13:12:47;10.40;99.80
43671;DHT22;29267;50.906;7.248;2024-03-07T13:15:14;10.20;99.90
43671;DHT22;29267;50.906;7.248;2024-03-07T13:17:40;10.20;99.90
43671;DHT22;29267;50.906;7.248;2024-03-07T13:20:12;10.40;99.90
43671;DHT22;29267;50.906;7.248;2024-03-07T13:22:41;10.40;99.90
43671;DHT22;29267;50.906;7.248;2024-03-07T13:25:18;10.50;99.90
43671;DHT22;29267;50.906;7.248;2024-03-07T13:30:21;10.50;99.90
43671;DHT22;29267;50.906;7.248;2024-03-07T13:32:53;10.50;99.90
43671;DHT22;29267;50.906;7.248;2024-03-07T13:35:19;10.20;99.90
43671;DHT22;29267;50.906;7.248;2024-03-07T13:37:49;9.90;99.90
43671;DHT22;29267;50.906;7.248;2024-03-07T13:40:16;9.90;99.90
43671;DHT22;29267;50.906;7.248;2024-03-07T13:42:58;9.90;99.90
43671;DHT22;29267;50.906;7.248;2024-03-07T13:45:27;9.70;99.90
43671;DHT22;29267;50.906;7.248;2024-03-07T13:47:56;9.70;99.90
43671;DHT22;29267;50.906;7.248;2024-03-07T13:50:24;9.70;99.90
43671;DHT22;29267;50.906;7.248;2024-03-07T13:52:51;9.60;99.90
43671;DHT22;29267;50.906;7.248;2024-03-07T13:56:06;9.60;99.90
43671;DHT22;29267;50.906;7.248;2024-03-07T14:01:56;9.50;99.90
43671;DHT22;29267;50.906;7.248;2024-03-07T14:07:51;9.30;99.90
43671;DHT22;29267;50.906;7.248;2024-03-07T14:13:39;9.40;99.90
43671;DHT22;29267;50.906;7.248;2024-03-07T14:30:40;9.90;99.90
43671;DHT22;29267;50.906;7.248;2024-03-07T14:33:08;9.70;99.90
43671;DHT22;29267;50.906;7.248;2024-03-07T14:36:00;9.70;99.90
43671;DHT22;29267;50.906;7.248;2024-03-07T14:38:50;9.80;99.90
43671;DHT22;29267;50.906;7.248;2024-03-07T14:41:18;10.00;99.90
43671;DHT22;29267;50.906;7.248;2024-03-07T14:43:44;9.90;99.90
43671;DHT22;29267;50.906;7.248;2024-03-07T14:46:11;9.90;99.90
43671;DHT22;29267;50.906;7.248;2024-03-07T14:48:38;9.80;99.90
43671;DHT22;29267;50.906;7.248;2024-03-07T14:51:07;9.90;99.90
43671;DHT22;29267;50.906;7.248;2024-03-07T14:53:34;9.90;99.90
43671;DHT22;29267;50.906;7.248;2024-03-07T14:56:00;10.00;99.90
43671;DHT22;29267;50.906;7.248;2024-03-07T14:58:26;9.90;99.90
43671;DHT22;29267;50.906;7.248;2024-03-07T15:00:52;9.90;99.90
43671;DHT22;29267;50.906;7.248;2024-03-07T15:03:20;9.90;99.90
43671;DHT22;29267;50.906;7.248;2024-03-07T15:05:45;9.90;99.90
43671;DHT22;29267;50.906;7.248;2024-03-07T15:08:12;9.90;99.90
43671;DHT22;29267;50.906;7.248;2024-03-07T15:10:48;9.90;99.90
43671;DHT22;29267;50.906;7.248;2024-03-07T15:13:15;10.00;99.90
43671;DHT22;29267;50.906;7.248;2024-03-07T15:15:42;9.90;99.90
43671;DHT22;29267;50.906;7.248;2024-03-07T15:18:09;9.70;99.90
43671;DHT22;29267;50.906;7.248;2024-03-07T15:20:35;9.70;99.90
43671;DHT22;29267;50.906;7.248;2024-03-07T15:23:02;9.50;99.90
43671;DHT22;29267;50.906;7.248;2024-03-07T15:25:29;9.40;99.90
43671;DHT22;29267;50.906;7.248;2024-03-07T15:27:56;9.40;99.90
43671;DHT22;29267;50.906;7.248;2024-03-07T15:30:24;9.30;99.90
43671;DHT22;29267;50.906;7.248;2024-03-07T15:33:03;9.30;99.90
43671;DHT22;29267;50.906;7.248;2024-03-07T15:35:29;9.30;99.90
43671;DHT22;29267;50.906;7.248;2024-03-07T15:37:56;9.40;99.90
43671;DHT22;29267;50.906;7.248;2024-03-07T15:40:22;9.40;99.90
43671;DHT22;29267;50.906;7.248;2024-03-07T15:42:49;9.30;99.90
43671;DHT22;29267;50.906;7.248;2024-03-07T15:45:20;9.20;99.90
43671;DHT22;29267;50.906;7.248;2024-03-07T15:47:51;9.00;99.90
43671;DHT22;29267;50.906;7.248;2024-03-07T15:50:18;8.90;99.90
43671;DHT22;29267;50.906;7.248;2024-03-07T15:52:48;8.70;99.90
43671;DHT22;29267;50.906;7.248;2024-03-07T15:55:17;8.70;99.90
43671;DHT22;29267;50.906;7.248;2024-03-07T16:00:10;8.50;99.90
43671;DHT22;29267;50.906;7.248;2024-03-07T16:02:52;8.40;99.90
43671;DHT22;29267;50.906;7.248;2024-03-07T16:05:23;8.40;99.90
43671;DHT22;29267;50.906;7.248;2024-03-07T16:07:53;8.40;99.90
43671;DHT22;29267;50.906;7.248;2024-03-07T16:10:20;8.40;99.90
43671;DHT22;29267;50.906;7.248;2024-03-07T16:12:46;8.40;99.90
43671;DHT22;29267;50.906;7.248;2024-03-07T16:15:12;8.40;99.90
43671;DHT22;29267;50.906;7.248;2024-03-07T16:17:39;8.40;99.90
43671;DHT22;29267;50.906;7.248;2024-03-07T16:20:05;8.30;99.90
43671;DHT22;29267;50.906;7.248;2024-03-07T16:22:40;8.30;99.90
43671;DHT22;29267;50.906;7.248;2024-03-07T16:25:08;8.30;99.90
43671;DHT22;29267;50.906;7.248;2024-03-07T16:27:35;8.20;99.90
43671;DHT22;29267;50.906;7.248;2024-03-07T16:30:05;8.10;99.90